メインページ
METAR-TAF:

METAR-TAF

空港 :

ブダペスト, ハンガリー

リスト・フェレンツ国際空港

緯度: 47-26N, 経度: 019-16E, 海抜: 151m

現時点の気象観測

当レポートは10分前の23:30(UTC)に作成
西/北西の風 7kt
気温 2°C
湿度 75%
気圧 1022 hPa
視程10km以上
1,500メートル以下は雲なし、積乱雲なし

METAR: LHBP 232330Z 29007KT CAVOK 02/M02 Q1022 NOSIG

時間: 01:40 (23:40 UTC)

予報

当レポートは6時間40分前の17:00(UTC)に作成
予報は23日の 18時(UTC)から 24日の 18時(UTC)まで有効
西/北西の風 7kt
視程10km以上
1,500メートル以下は雲なし、積乱雲なし
23日の 22時(UTC)から 23日の 24時(UTC)まで徐々に
変向風 3kt
24日の 07時(UTC)から 24日の 09時(UTC)まで徐々に
西の風 8kt
24日の 08時(UTC)から 24日の 12時(UTC)まで一時的に
高度4500ftの雲は散在している
24日の 12時(UTC)から 24日の 14時(UTC)まで徐々に
南西の風 9kt

TAF: LHBP 231700Z 2318/2418 29007KT CAVOK BECMG 2322/2324 VRB03KT BECMG 2407/2409 27008KT TEMPO 2408/2412 SCT045 BECMG 2412/2414 22009KT

4,000以上の空港の気象観測と天気予報(METAR報とTAF報)

利用可能な観測所は地図上に黄色い丸と赤い丸で示す。

丸の上にカーソルを重ねると観測所名を参照できる。

次にクリックすると気象観測と天気予報を参照できる。

マップの切り替え:黒色「×」印の緑ボタンをクリックして拡大、「-」印の緑ボタンをクリックして縮小、緑色の三角印をクリックして隣りの地図に切り替え


METAR-TAF: